Time;durP1;ratioP1;P1;durP2;ratioP2;P2;SDS_P1;SDS_P2;PMS_P1;PMS_P2;Temp;Humidity;BMP_temperature;BMP_pressure;BME280_temperature;BME280_humidity;BME280_pressure;Samples;Min_cycle;Max_cycle;Signal;HPM_P1;HPM_P2
2024/01/29 00:01:01;;;;;;;8.57;3.35;;;;;;;;;;5017202;28;20018;-77
2024/01/29 00:03:26;;;;;;;7.45;3.30;;;;;;;;;;5017344;28;20053;-77
2024/01/29 00:05:51;;;;;;;9.88;3.67;;;;;;;;;;5016232;28;20033;-77
2024/01/29 00:08:17;;;;;;;9.13;3.35;;;;;;;;;;4999010;28;20018;-77
2024/01/29 00:10:42;;;;;;;11.73;3.22;;;;;;;;;;4998886;28;20045;-77
2024/01/29 00:13:07;;;;;;;7.47;3.78;;;;;;;;;;5017158;28;20030;-77
2024/01/29 00:15:32;;;;;;;8.13;3.50;;;;;;;;;;4999225;28;20563;-77
2024/01/29 00:17:58;;;;;;;10.23;3.78;;;;;;;;;;5016401;28;20338;-77
2024/01/29 00:20:23;;;;;;;10.40;3.10;;;;;;;;;;5016163;28;20025;-78
2024/01/29 00:22:48;;;;;;;9.25;3.22;;;;;;;;;;5016298;28;20022;-76
2024/01/29 00:25:13;;;;;;;10.90;4.30;;;;;;;;;;5016914;28;20041;-78
2024/01/29 00:27:39;;;;;;;9.13;3.23;;;;;;;;;;4999480;28;20349;-78
2024/01/29 00:30:06;;;;;;;10.27;4.10;;;;;;;;;;4999527;28;20402;-77
2024/01/29 00:32:31;;;;;;;9.07;3.90;;;;;;;;;;4999013;28;20053;-77
2024/01/29 00:34:56;;;;;;;11.02;4.55;;;;;;;;;;5016825;28;20582;-77
2024/01/29 00:37:22;;;;;;;10.77;3.47;;;;;;;;;;5015499;28;20030;-77
2024/01/29 00:39:48;;;;;;;14.15;3.88;;;;;;;;;;5014565;28;20259;-77
2024/01/29 00:42:14;;;;;;;8.55;3.22;;;;;;;;;;5015133;28;20030;-77
2024/01/29 00:44:39;;;;;;;6.97;3.57;;;;;;;;;;4997716;28;20608;-77
2024/01/29 00:47:04;;;;;;;11.23;3.72;;;;;;;;;;5013015;28;20338;-77
2024/01/29 00:49:32;;;;;;;8.30;3.65;;;;;;;;;;5013255;28;20018;-77
2024/01/29 00:51:58;;;;;;;6.18;3.30;;;;;;;;;;5015615;28;20389;-77
2024/01/29 00:54:24;;;;;;;11.07;3.42;;;;;;;;;;5015825;28;20026;-77
2024/01/29 00:56:49;;;;;;;9.68;3.67;;;;;;;;;;4999150;28;20056;-76
2024/01/29 00:59:14;;;;;;;8.05;3.72;;;;;;;;;;5016271;28;20103;-77
2024/01/29 01:01:39;;;;;;;9.55;3.10;;;;;;;;;;5016249;28;20049;-77
2024/01/29 01:04:05;;;;;;;6.13;3.43;;;;;;;;;;4997725;28;20029;-76
2024/01/29 01:06:30;;;;;;;8.80;3.35;;;;;;;;;;4997268;28;20262;-75
2024/01/29 01:08:56;;;;;;;11.33;4.07;;;;;;;;;;4997384;28;20053;-76
2024/01/29 01:11:21;;;;;;;10.32;3.40;;;;;;;;;;5015478;28;20680;-76
2024/01/29 01:13:46;;;;;;;9.60;3.38;;;;;;;;;;4997374;28;20033;-77
2024/01/29 01:16:11;;;;;;;6.95;3.15;;;;;;;;;;5015393;28;20026;-74
2024/01/29 01:18:37;;;;;;;9.55;3.17;;;;;;;;;;5014817;28;20105;-76
2024/01/29 01:21:02;;;;;;;9.90;3.53;;;;;;;;;;5015048;28;20485;-76
2024/01/29 01:23:27;;;;;;;6.47;3.22;;;;;;;;;;4997179;28;20036;-76
2024/01/29 01:25:53;;;;;;;10.93;3.60;;;;;;;;;;5015490;28;20022;-76
2024/01/29 01:28:18;;;;;;;12.85;3.78;;;;;;;;;;4998066;28;20026;-77
2024/01/29 01:30:43;;;;;;;7.90;3.60;;;;;;;;;;5016746;28;20545;-77
2024/01/29 01:33:08;;;;;;;11.00;2.97;;;;;;;;;;5016813;28;20385;-77
2024/01/29 01:35:33;;;;;;;13.45;3.65;;;;;;;;;;5017102;28;20533;-77
2024/01/29 01:37:59;;;;;;;10.70;3.37;;;;;;;;;;5016492;28;20485;-77
2024/01/29 01:40:24;;;;;;;12.93;3.20;;;;;;;;;;5016136;28;20726;-77
2024/01/29 01:42:49;;;;;;;6.87;3.10;;;;;;;;;;5017023;28;20805;-76
2024/01/29 01:45:14;;;;;;;7.80;3.25;;;;;;;;;;4999767;28;20743;-77
2024/01/29 01:47:40;;;;;;;12.18;3.45;;;;;;;;;;5017812;28;20105;-77
2024/01/29 01:50:08;;;;;;;7.00;2.75;;;;;;;;;;5017894;28;20089;-77
2024/01/29 01:52:33;;;;;;;8.95;3.53;;;;;;;;;;5019109;28;20112;-77
2024/01/29 01:54:59;;;;;;;9.38;3.20;;;;;;;;;;5000910;28;20116;-77
2024/01/29 01:57:24;;;;;;;9.32;3.60;;;;;;;;;;5019037;28;20066;-76
2024/01/29 01:59:51;;;;;;;9.65;2.97;;;;;;;;;;4999662;28;20038;-76
2024/01/29 02:02:16;;;;;;;8.73;2.88;;;;;;;;;;4999516;28;20037;-77
2024/01/29 02:04:41;;;;;;;8.35;3.15;;;;;;;;;;5017312;28;20026;-77
2024/01/29 02:07:07;;;;;;;8.97;2.87;;;;;;;;;;5016611;28;20026;-77
2024/01/29 02:09:33;;;;;;;8.00;2.90;;;;;;;;;;5015854;28;20422;-77
2024/01/29 02:11:58;;;;;;;6.38;3.00;;;;;;;;;;5016550;28;20526;-77
2024/01/29 02:14:23;;;;;;;5.13;2.55;;;;;;;;;;5016338;28;20058;-76
2024/01/29 02:16:49;;;;;;;7.37;2.87;;;;;;;;;;5016839;28;20079;-77
2024/01/29 02:19:17;;;;;;;7.43;2.95;;;;;;;;;;4998011;28;20251;-76
2024/01/29 02:21:44;;;;;;;6.65;2.97;;;;;;;;;;5015531;28;20030;-77
2024/01/29 02:24:09;;;;;;;6.63;3.05;;;;;;;;;;4998226;28;20033;-74
2024/01/29 02:26:35;;;;;;;7.85;3.67;;;;;;;;;;5016046;28;20034;-77
2024/01/29 02:29:00;;;;;;;15.65;3.28;;;;;;;;;;5015757;28;20553;-77
2024/01/29 02:31:26;;;;;;;9.23;3.60;;;;;;;;;;5018415;28;20036;-77
2024/01/29 02:33:51;;;;;;;8.70;3.50;;;;;;;;;;5020248;28;20060;-76
2024/01/29 02:36:16;;;;;;;12.47;3.67;;;;;;;;;;5020651;28;20038;-77
2024/01/29 02:38:42;;;;;;;8.07;3.40;;;;;;;;;;5020264;28;20267;-77
2024/01/29 02:41:08;;;;;;;7.35;3.38;;;;;;;;;;5019710;28;20263;-77
2024/01/29 02:43:33;;;;;;;8.93;3.42;;;;;;;;;;5000946;28;20033;-76
2024/01/29 02:45:58;;;;;;;7.78;3.25;;;;;;;;;;5018869;28;20041;-76
2024/01/29 02:48:23;;;;;;;8.43;3.30;;;;;;;;;;5018294;28;20488;-76
2024/01/29 02:50:49;;;;;;;8.15;3.42;;;;;;;;;;5017978;28;20485;-77
2024/01/29 02:53:14;;;;;;;7.40;3.42;;;;;;;;;;5018102;28;20494;-76
2024/01/29 02:55:39;;;;;;;8.00;3.78;;;;;;;;;;5018391;28;20030;-76
2024/01/29 02:58:04;;;;;;;12.50;3.57;;;;;;;;;;5018232;28;20109;-77
2024/01/29 03:00:31;;;;;;;9.98;3.70;;;;;;;;;;5018428;28;20298;-77
2024/01/29 03:02:57;;;;;;;8.70;3.60;;;;;;;;;;5000786;28;20060;-77
2024/01/29 03:05:22;;;;;;;6.50;2.75;;;;;;;;;;5018171;28;20030;-77
2024/01/29 03:07:48;;;;;;;7.90;3.28;;;;;;;;;;5000734;28;20030;-77
2024/01/29 03:10:13;;;;;;;9.07;3.65;;;;;;;;;;5018816;28;20038;-77
2024/01/29 03:12:38;;;;;;;8.80;3.15;;;;;;;;;;5001593;28;20029;-78
2024/01/29 03:15:04;;;;;;;9.90;3.43;;;;;;;;;;5018961;28;20334;-77
2024/01/29 03:17:29;;;;;;;8.75;3.30;;;;;;;;;;5017661;28;20735;-76
2024/01/29 03:19:54;;;;;;;8.90;3.53;;;;;;;;;;5017746;28;20030;-75
2024/01/29 03:22:19;;;;;;;9.32;3.30;;;;;;;;;;4999796;28;20037;-76
2024/01/29 03:24:45;;;;;;;7.57;3.50;;;;;;;;;;4999573;28;20052;-77
2024/01/29 03:27:10;;;;;;;8.80;3.72;;;;;;;;;;4999670;28;20362;-76
2024/01/29 03:29:35;;;;;;;8.88;3.63;;;;;;;;;;5016933;28;20022;-76
2024/01/29 03:32:00;;;;;;;9.37;3.43;;;;;;;;;;5017504;28;20109;-76
2024/01/29 03:34:25;;;;;;;8.88;2.78;;;;;;;;;;5017317;28;20334;-77
2024/01/29 03:36:51;;;;;;;8.30;3.53;;;;;;;;;;5017974;28;20022;-77
2024/01/29 03:39:16;;;;;;;10.68;3.88;;;;;;;;;;5017278;28;20650;-77
2024/01/29 03:41:41;;;;;;;9.60;3.78;;;;;;;;;;5016720;28;20026;-76
2024/01/29 03:44:06;;;;;;;7.53;3.67;;;;;;;;;;4998910;28;20083;-76
2024/01/29 03:46:32;;;;;;;12.05;3.95;;;;;;;;;;4999294;28;20251;-77
2024/01/29 03:48:57;;;;;;;12.85;3.97;;;;;;;;;;5000039;28;20026;-77
2024/01/29 03:51:22;;;;;;;9.40;4.15;;;;;;;;;;5017511;28;20072;-77
2024/01/29 03:53:47;;;;;;;8.67;3.87;;;;;;;;;;5017890;28;20037;-77
2024/01/29 03:56:15;;;;;;;14.90;4.13;;;;;;;;;;5017550;28;20259;-77
2024/01/29 03:58:40;;;;;;;8.00;3.88;;;;;;;;;;5016784;28;20026;-77
2024/01/29 04:01:05;;;;;;;11.32;2.88;;;;;;;;;;5017228;28;20025;-77
2024/01/29 04:03:30;;;;;;;11.00;3.67;;;;;;;;;;4999252;28;20037;-76
2024/01/29 04:05:56;;;;;;;8.30;3.78;;;;;;;;;;5016934;28;20366;-77
2024/01/29 04:08:21;;;;;;;10.90;4.03;;;;;;;;;;5016789;28;20030;-75
2024/01/29 04:10:46;;;;;;;9.30;3.80;;;;;;;;;;4999039;28;20061;-76
2024/01/29 04:13:12;;;;;;;7.20;3.45;;;;;;;;;;5017433;28;20540;-77
2024/01/29 04:15:37;;;;;;;10.10;3.85;;;;;;;;;;5016685;28;20029;-76
2024/01/29 04:18:02;;;;;;;8.43;3.10;;;;;;;;;;5016780;28;20017;-77
2024/01/29 04:20:28;;;;;;;6.07;3.47;;;;;;;;;;5016574;28;20604;-77
2024/01/29 04:22:53;;;;;;;12.80;4.00;;;;;;;;;;5016740;28;20034;-76
2024/01/29 04:25:18;;;;;;;11.53;3.83;;;;;;;;;;5016758;28;20267;-76
2024/01/29 04:27:43;;;;;;;8.97;3.57;;;;;;;;;;5016349;28;20290;-77
2024/01/29 04:30:09;;;;;;;10.60;4.15;;;;;;;;;;5016736;28;20267;-77
2024/01/29 04:32:34;;;;;;;9.18;3.83;;;;;;;;;;5016064;28;20515;-77
2024/01/29 04:35:00;;;;;;;11.25;4.05;;;;;;;;;;5016160;28;20030;-77
2024/01/29 04:37:25;;;;;;;11.20;4.20;;;;;;;;;;5016883;28;20029;-77
2024/01/29 04:39:50;;;;;;;8.07;3.65;;;;;;;;;;5016293;28;20042;-76
2024/01/29 04:42:15;;;;;;;6.07;2.70;;;;;;;;;;5016021;28;20032;-77
2024/01/29 04:44:40;;;;;;;7.67;3.57;;;;;;;;;;5016039;28;20029;-77
2024/01/29 04:47:06;;;;;;;8.57;3.58;;;;;;;;;;5015671;28;20776;-77
2024/01/29 04:49:31;;;;;;;4.65;2.55;;;;;;;;;;4998440;28;20481;-77
2024/01/29 04:51:56;;;;;;;7.28;3.67;;;;;;;;;;5015150;28;20029;-77
2024/01/29 04:54:22;;;;;;;12.90;4.30;;;;;;;;;;5015409;28;20037;-77
2024/01/29 04:56:47;;;;;;;7.28;3.05;;;;;;;;;;5016095;28;20259;-77
2024/01/29 04:59:12;;;;;;;12.20;4.17;;;;;;;;;;5016038;28;20037;-77
2024/01/29 05:01:37;;;;;;;7.13;3.57;;;;;;;;;;5016576;28;20270;-77
2024/01/29 05:04:03;;;;;;;4.83;2.70;;;;;;;;;;4998856;28;20263;-78
2024/01/29 05:06:28;;;;;;;8.07;3.20;;;;;;;;;;5015978;28;20259;-76
2024/01/29 05:08:55;;;;;;;7.45;3.25;;;;;;;;;;5016776;28;20034;-77
2024/01/29 05:11:20;;;;;;;12.57;4.13;;;;;;;;;;4999992;28;20033;-78
2024/01/29 05:13:45;;;;;;;10.15;3.78;;;;;;;;;;5017499;28;20021;-78
2024/01/29 05:16:10;;;;;;;9.15;3.53;;;;;;;;;;5017273;28;20106;-77
2024/01/29 05:18:36;;;;;;;8.38;3.65;;;;;;;;;;4999406;28;20033;-77
2024/01/29 05:21:02;;;;;;;8.52;3.70;;;;;;;;;;4999045;28;20025;-78
2024/01/29 05:23:28;;;;;;;8.30;2.95;;;;;;;;;;5016840;28;20021;-78
2024/01/29 05:25:53;;;;;;;6.77;3.43;;;;;;;;;;5016159;28;20489;-78
2024/01/29 05:28:18;;;;;;;12.55;4.22;;;;;;;;;;4998321;28;20813;-77
2024/01/29 05:30:44;;;;;;;5.35;2.83;;;;;;;;;;5016204;28;20104;-78
2024/01/29 05:33:09;;;;;;;8.63;3.33;;;;;;;;;;4997861;28;20033;-77
2024/01/29 05:35:34;;;;;;;8.48;3.53;;;;;;;;;;5015858;28;20049;-77
2024/01/29 05:38:00;;;;;;;5.67;2.57;;;;;;;;;;5015693;28;20543;-78
2024/01/29 05:40:25;;;;;;;8.13;3.57;;;;;;;;;;5015851;28;20749;-78
2024/01/29 05:42:53;;;;;;;8.20;3.33;;;;;;;;;;5016523;28;21818;-78
2024/01/29 05:45:19;;;;;;;4.38;2.42;;;;;;;;;;5015590;28;20080;-78
2024/01/29 05:47:45;;;;;;;7.82;3.25;;;;;;;;;;5015577;28;20026;-77
2024/01/29 05:50:11;;;;;;;8.57;3.50;;;;;;;;;;4998343;28;20029;-77
2024/01/29 05:52:36;;;;;;;11.48;3.80;;;;;;;;;;5016088;28;20026;-78
2024/01/29 05:55:01;;;;;;;6.60;3.28;;;;;;;;;;5015388;28;20053;-77
2024/01/29 05:57:27;;;;;;;4.50;2.28;;;;;;;;;;5013897;28;20033;-78
2024/01/29 05:59:53;;;;;;;7.72;3.08;;;;;;;;;;5013868;28;20515;-77
2024/01/29 06:02:18;;;;;;;7.85;3.72;;;;;;;;;;5014581;28;20042;-77
2024/01/29 06:04:44;;;;;;;6.72;3.25;;;;;;;;;;5013840;28;20030;-77
2024/01/29 06:07:09;;;;;;;5.97;2.45;;;;;;;;;;5014070;28;20378;-78
2024/01/29 06:09:34;;;;;;;6.97;3.47;;;;;;;;;;4999025;28;20113;-78
2024/01/29 06:11:59;;;;;;;8.93;3.80;;;;;;;;;;5016575;28;20314;-83
2024/01/29 06:14:26;;;;;;;7.00;3.53;;;;;;;;;;4999949;28;20280;-78
2024/01/29 06:16:51;;;;;;;5.82;3.38;;;;;;;;;;4999968;28;20496;-78
2024/01/29 06:19:18;;;;;;;12.65;3.60;;;;;;;;;;5017355;28;20026;-78
2024/01/29 06:21:44;;;;;;;11.35;3.45;;;;;;;;;;5016043;28;20021;-77
2024/01/29 06:24:10;;;;;;;7.30;3.28;;;;;;;;;;5016887;28;20583;-78
2024/01/29 06:26:35;;;;;;;12.57;4.05;;;;;;;;;;5014346;28;20064;-77
2024/01/29 06:29:00;;;;;;;6.78;3.65;;;;;;;;;;5013828;28;20026;-77
2024/01/29 06:31:26;;;;;;;9.70;3.85;;;;;;;;;;4997246;28;20507;-79
2024/01/29 06:33:54;;;;;;;8.53;3.50;;;;;;;;;;5016748;28;20018;-78
2024/01/29 06:36:20;;;;;;;7.93;3.50;;;;;;;;;;5016428;28;20243;-79
2024/01/29 06:38:45;;;;;;;13.10;3.60;;;;;;;;;;4998352;28;20076;-78
2024/01/29 06:41:23;;;;;;;5.30;2.78;;;;;;;;;;5015749;28;20034;-78
2024/01/29 06:43:53;;;;;;;9.27;4.20;;;;;;;;;;4997763;28;20040;-77
2024/01/29 06:46:19;;;;;;;9.10;3.95;;;;;;;;;;5014207;28;20057;-77
2024/01/29 06:48:44;;;;;;;11.23;4.10;;;;;;;;;;4996570;28;20057;-78
2024/01/29 06:51:10;;;;;;;9.63;4.10;;;;;;;;;;5015996;28;20038;-78
2024/01/29 06:53:36;;;;;;;6.88;3.65;;;;;;;;;;5014881;28;20032;-78
2024/01/29 06:56:04;;;;;;;9.68;3.28;;;;;;;;;;5013028;28;20056;-79
2024/01/29 06:58:33;;;;;;;9.50;4.40;;;;;;;;;;4994611;28;20029;-78
2024/01/29 07:01:01;;;;;;;6.88;3.47;;;;;;;;;;5012990;28;20095;-78
2024/01/29 07:03:26;;;;;;;8.27;3.88;;;;;;;;;;5015922;28;20413;-77
2024/01/29 07:05:52;;;;;;;8.38;3.83;;;;;;;;;;5013309;28;20025;-79
2024/01/29 07:08:17;;;;;;;9.50;4.43;;;;;;;;;;5018179;28;20014;-79
2024/01/29 07:10:43;;;;;;;8.13;3.15;;;;;;;;;;5015049;28;20034;-76
2024/01/29 07:13:08;;;;;;;7.82;2.88;;;;;;;;;;5012765;28;20029;-75
2024/01/29 07:15:34;;;;;;;17.27;6.75;;;;;;;;;;5013054;28;20025;-76
2024/01/29 07:17:59;;;;;;;11.00;3.45;;;;;;;;;;5016814;28;20026;-77
2024/01/29 07:20:27;;;;;;;7.90;3.83;;;;;;;;;;4999583;28;20465;-77
2024/01/29 07:22:53;;;;;;;8.52;4.03;;;;;;;;;;5020586;28;20481;-79
2024/01/29 07:25:18;;;;;;;10.10;4.15;;;;;;;;;;5023043;28;20078;-79
2024/01/29 07:27:43;;;;;;;8.88;2.85;;;;;;;;;;5025016;28;20089;-81
2024/01/29 07:30:09;;;;;;;7.70;3.28;;;;;;;;;;5024739;28;20034;-81
2024/01/29 07:32:35;;;;;;;6.20;3.20;;;;;;;;;;5024332;28;20115;-80
2024/01/29 07:35:00;;;;;;;7.50;3.78;;;;;;;;;;5020625;28;20022;-77
2024/01/29 07:37:29;;;;;;;12.07;4.45;;;;;;;;;;5014060;28;20080;-77
2024/01/29 07:39:54;;;;;;;10.38;4.47;;;;;;;;;;5015416;28;20030;-77
2024/01/29 07:42:19;;;;;;;8.73;4.17;;;;;;;;;;5016155;28;20033;-76
2024/01/29 07:44:44;;;;;;;9.02;4.07;;;;;;;;;;5015512;28;20294;-76
2024/01/29 07:47:10;;;;;;;7.25;3.42;;;;;;;;;;5016853;28;20028;-79
2024/01/29 07:49:36;;;;;;;7.55;3.08;;;;;;;;;;5016326;28;20022;-77
2024/01/29 07:52:01;;;;;;;6.95;3.65;;;;;;;;;;5016444;28;20038;-76
2024/01/29 07:54:26;;;;;;;8.77;3.63;;;;;;;;;;5017411;28;20025;-78
2024/01/29 07:56:51;;;;;;;8.02;3.40;;;;;;;;;;5018369;28;20596;-78
2024/01/29 07:59:17;;;;;;;8.03;3.20;;;;;;;;;;5017899;28;20021;-78
2024/01/29 08:01:44;;;;;;;8.17;3.20;;;;;;;;;;4999365;28;20267;-77
2024/01/29 08:04:09;;;;;;;7.97;3.28;;;;;;;;;;5016433;28;20255;-78
2024/01/29 08:06:35;;;;;;;8.07;2.67;;;;;;;;;;5016656;28;20518;-77
2024/01/29 08:09:00;;;;;;;10.10;4.07;;;;;;;;;;4999155;28;20025;-77
2024/01/29 08:11:25;;;;;;;11.30;4.05;;;;;;;;;;5017183;28;20335;-78
2024/01/29 08:13:50;;;;;;;8.15;4.13;;;;;;;;;;5016859;28;20033;-78
2024/01/29 08:16:16;;;;;;;12.45;4.10;;;;;;;;;;5016985;28;20034;-77
2024/01/29 08:18:41;;;;;;;9.90;3.37;;;;;;;;;;5016665;28;20444;-78
2024/01/29 08:21:06;;;;;;;10.10;3.93;;;;;;;;;;5016571;28;20674;-77
2024/01/29 08:23:31;;;;;;;7.03;3.03;;;;;;;;;;5016625;28;20670;-78
2024/01/29 08:25:57;;;;;;;10.30;4.17;;;;;;;;;;4999501;28;20743;-78
2024/01/29 08:28:22;;;;;;;7.75;3.53;;;;;;;;;;5015853;28;20816;-78
2024/01/29 08:30:47;;;;;;;6.23;3.53;;;;;;;;;;5017011;28;20033;-78
2024/01/29 08:33:13;;;;;;;7.97;3.42;;;;;;;;;;4997695;28;20256;-77
2024/01/29 08:35:38;;;;;;;5.43;3.05;;;;;;;;;;5015556;28;20029;-77
2024/01/29 08:38:03;;;;;;;9.27;3.72;;;;;;;;;;5015324;28;20374;-77
2024/01/29 08:40:30;;;;;;;7.90;3.00;;;;;;;;;;5014803;28;20021;-77
2024/01/29 08:42:56;;;;;;;9.05;4.32;;;;;;;;;;5014749;28;20030;-77
2024/01/29 08:45:21;;;;;;;5.63;2.70;;;;;;;;;;5015036;28;20028;-76
2024/01/29 08:47:46;;;;;;;7.50;3.67;;;;;;;;;;5016965;28;20029;-78
2024/01/29 08:50:11;;;;;;;6.82;3.47;;;;;;;;;;5017825;28;20370;-78
2024/01/29 08:52:37;;;;;;;5.73;3.53;;;;;;;;;;5016800;28;20029;-78
2024/01/29 08:55:03;;;;;;;6.90;3.72;;;;;;;;;;5015715;28;20751;-77
2024/01/29 08:57:28;;;;;;;9.23;3.70;;;;;;;;;;4998020;28;20033;-77
2024/01/29 08:59:54;;;;;;;11.80;3.53;;;;;;;;;;5015141;28;20045;-77
2024/01/29 09:02:19;;;;;;;6.90;3.42;;;;;;;;;;5014813;28;20056;-77
2024/01/29 09:04:44;;;;;;;7.32;3.95;;;;;;;;;;5014955;28;20022;-77
2024/01/29 09:07:09;;;;;;;5.90;2.63;;;;;;;;;;5014615;28;20100;-77
2024/01/29 09:09:35;;;;;;;5.75;3.10;;;;;;;;;;5014772;28;20018;-77
2024/01/29 09:12:00;;;;;;;8.50;3.70;;;;;;;;;;5014453;28;20044;-77
2024/01/29 09:14:27;;;;;;;8.88;3.58;;;;;;;;;;5014632;28;20026;-78
2024/01/29 09:16:52;;;;;;;6.13;2.97;;;;;;;;;;5014880;28;20029;-77
2024/01/29 09:19:20;;;;;;;7.63;3.33;;;;;;;;;;5014904;28;20018;-77
2024/01/29 09:21:49;;;;;;;6.47;2.70;;;;;;;;;;5014341;28;20101;-77
2024/01/29 09:24:15;;;;;;;6.57;2.75;;;;;;;;;;5014247;28;20032;-77
2024/01/29 09:26:41;;;;;;;5.93;2.53;;;;;;;;;;5014526;28;20397;-78
2024/01/29 09:29:06;;;;;;;7.07;3.53;;;;;;;;;;5014330;28;20018;-77
2024/01/29 09:31:32;;;;;;;6.93;3.10;;;;;;;;;;5014864;28;20021;-78
2024/01/29 09:33:57;;;;;;;7.82;2.72;;;;;;;;;;5014505;28;20026;-77
2024/01/29 09:36:23;;;;;;;8.60;3.90;;;;;;;;;;5014415;28;20026;-79
2024/01/29 09:38:48;;;;;;;10.77;3.22;;;;;;;;;;5013850;28;20366;-77
2024/01/29 09:41:14;;;;;;;6.07;2.92;;;;;;;;;;5014244;28;20030;-77
2024/01/29 09:43:39;;;;;;;9.77;3.60;;;;;;;;;;4996274;28;20441;-77
2024/01/29 09:46:05;;;;;;;10.63;3.10;;;;;;;;;;4996161;28;20032;-76
2024/01/29 09:48:33;;;;;;;12.18;4.03;;;;;;;;;;5013582;28;20030;-76
2024/01/29 09:51:00;;;;;;;7.82;3.40;;;;;;;;;;4995983;28;20041;-77
2024/01/29 09:53:25;;;;;;;7.30;3.42;;;;;;;;;;5013713;28;20048;-77
2024/01/29 09:55:51;;;;;;;3.90;2.03;;;;;;;;;;4995931;28;20497;-76
2024/01/29 09:58:16;;;;;;;6.22;3.42;;;;;;;;;;4996021;28;20029;-76
2024/01/29 10:00:41;;;;;;;5.82;2.65;;;;;;;;;;4995895;28;20427;-77
2024/01/29 10:03:13;;;;;;;5.68;2.83;;;;;;;;;;4996075;28;20018;-77
2024/01/29 10:05:39;;;;;;;6.57;3.17;;;;;;;;;;5013655;28;20030;-76
2024/01/29 10:08:05;;;;;;;6.78;3.17;;;;;;;;;;5013982;28;20365;-76
2024/01/29 10:10:30;;;;;;;4.55;2.78;;;;;;;;;;5013716;28;20104;-77
2024/01/29 10:13:06;;;;;;;8.30;2.57;;;;;;;;;;4995926;28;20098;-77
2024/01/29 10:15:31;;;;;;;5.40;2.10;;;;;;;;;;5013409;28;20251;-77
2024/01/29 10:17:57;;;;;;;9.05;2.95;;;;;;;;;;5013576;28;20014;-76
2024/01/29 10:20:22;;;;;;;6.63;3.10;;;;;;;;;;5013639;28;20055;-76
2024/01/29 10:22:51;;;;;;;5.63;2.50;;;;;;;;;;5013293;28;20025;-77
2024/01/29 10:25:16;;;;;;;5.03;2.63;;;;;;;;;;5013433;28;20426;-77
2024/01/29 10:27:41;;;;;;;6.32;3.13;;;;;;;;;;4995554;28;20164;-77
2024/01/29 10:30:07;;;;;;;7.47;3.35;;;;;;;;;;5013053;28;20041;-77
2024/01/29 10:32:34;;;;;;;8.20;3.30;;;;;;;;;;5012907;28;20026;-76
2024/01/29 10:34:59;;;;;;;6.68;2.80;;;;;;;;;;5013272;28;20041;-76
2024/01/29 10:37:26;;;;;;;6.32;3.08;;;;;;;;;;5012974;28;20025;-76
2024/01/29 10:39:53;;;;;;;9.60;3.03;;;;;;;;;;5013164;28;20018;-77
2024/01/29 10:42:20;;;;;;;7.68;3.08;;;;;;;;;;5012927;28;20036;-76
2024/01/29 10:44:46;;;;;;;7.30;3.70;;;;;;;;;;4996191;28;20347;-77
2024/01/29 10:47:22;;;;;;;7.38;3.40;;;;;;;;;;4995584;28;20026;-76
2024/01/29 10:49:48;;;;;;;12.45;3.53;;;;;;;;;;4995178;28;20037;-76
2024/01/29 10:52:15;;;;;;;8.73;3.63;;;;;;;;;;5016168;28;20385;-76
2024/01/29 10:54:40;;;;;;;9.77;3.67;;;;;;;;;;5016815;28;20037;-76
2024/01/29 10:57:09;;;;;;;9.05;3.65;;;;;;;;;;4999115;28;20092;-77
2024/01/29 10:59:36;;;;;;;8.50;3.30;;;;;;;;;;5016785;28;20105;-76
2024/01/29 11:02:03;;;;;;;5.25;2.55;;;;;;;;;;5016602;28;20022;-76
2024/01/29 11:04:29;;;;;;;5.97;2.92;;;;;;;;;;4999052;28;20041;-76
2024/01/29 11:07:06;;;;;;;8.77;3.65;;;;;;;;;;5016577;28;20038;-77
2024/01/29 11:09:33;;;;;;;10.88;3.60;;;;;;;;;;5016492;28;20026;-76
2024/01/29 11:11:58;;;;;;;4.57;3.10;;;;;;;;;;5016629;28;20547;-76
2024/01/29 11:14:24;;;;;;;6.82;3.47;;;;;;;;;;4998960;28;20030;-75
2024/01/29 11:16:52;;;;;;;8.20;3.65;;;;;;;;;;5016468;28;20030;-77
2024/01/29 11:19:20;;;;;;;7.25;2.72;;;;;;;;;;4998895;28;20026;-78
2024/01/29 11:21:50;;;;;;;6.40;3.35;;;;;;;;;;5016660;28;20396;-76
2024/01/29 11:24:16;;;;;;;7.20;3.38;;;;;;;;;;5016783;28;20107;-77
2024/01/29 11:26:41;;;;;;;6.97;3.20;;;;;;;;;;4998785;28;20034;-76
2024/01/29 11:29:07;;;;;;;8.65;3.70;;;;;;;;;;5016263;28;20053;-75
2024/01/29 11:31:42;;;;;;;4.50;2.50;;;;;;;;;;5017560;28;20025;-75
2024/01/29 11:34:08;;;;;;;4.85;2.72;;;;;;;;;;5016353;28;20045;-76
2024/01/29 11:36:37;;;;;;;6.68;3.45;;;;;;;;;;5016591;28;20540;-77
2024/01/29 11:39:04;;;;;;;6.57;3.35;;;;;;;;;;5015938;28;20022;-73
2024/01/29 11:41:31;;;;;;;6.07;3.28;;;;;;;;;;4998294;28;20057;-72
2024/01/29 11:43:57;;;;;;;7.18;3.72;;;;;;;;;;5015902;28;20088;-74
2024/01/29 11:46:26;;;;;;;7.03;3.50;;;;;;;;;;5016474;28;20018;-74
2024/01/29 11:48:51;;;;;;;7.63;3.67;;;;;;;;;;4998264;28;20057;-73
2024/01/29 11:51:16;;;;;;;7.40;3.47;;;;;;;;;;4998401;28;20068;-73
2024/01/29 11:53:42;;;;;;;7.40;3.03;;;;;;;;;;5016586;28;20303;-73
2024/01/29 11:56:07;;;;;;;12.07;3.75;;;;;;;;;;5016327;28;20294;-74
2024/01/29 11:58:32;;;;;;;8.23;2.95;;;;;;;;;;5015764;28;20030;-73
2024/01/29 12:00:57;;;;;;;7.78;3.67;;;;;;;;;;4998127;28;20497;-73
2024/01/29 12:03:25;;;;;;;7.38;3.03;;;;;;;;;;5015489;28;20026;-73
2024/01/29 12:05:51;;;;;;;6.80;3.22;;;;;;;;;;5015802;28;20029;-74
2024/01/29 12:08:18;;;;;;;6.38;3.25;;;;;;;;;;4997722;28;20183;-72
2024/01/29 12:10:44;;;;;;;8.00;3.60;;;;;;;;;;5015541;28;20026;-73
2024/01/29 12:13:19;;;;;;;5.40;3.00;;;;;;;;;;5015391;28;20022;-74
2024/01/29 12:15:46;;;;;;;7.40;3.17;;;;;;;;;;5015412;28;20157;-73
2024/01/29 12:18:23;;;;;;;7.22;2.72;;;;;;;;;;4997864;28;20485;-74
2024/01/29 12:20:49;;;;;;;7.90;3.55;;;;;;;;;;5015422;28;20032;-74
2024/01/29 12:23:16;;;;;;;7.85;3.42;;;;;;;;;;5015710;28;20105;-79
2024/01/29 12:25:43;;;;;;;7.07;2.92;;;;;;;;;;5015696;28;20044;-73
2024/01/29 12:28:09;;;;;;;6.85;2.97;;;;;;;;;;5015310;28;20040;-73
2024/01/29 12:30:35;;;;;;;8.70;3.53;;;;;;;;;;5015207;28;20057;-73
2024/01/29 12:33:00;;;;;;;7.53;3.25;;;;;;;;;;5015105;28;20030;-74
2024/01/29 12:35:28;;;;;;;5.65;2.55;;;;;;;;;;4997516;28;20026;-73
2024/01/29 12:38:02;;;;;;;7.60;2.97;;;;;;;;;;4997440;28;20493;-74
2024/01/29 12:40:27;;;;;;;5.28;2.88;;;;;;;;;;5015210;28;20072;-74
2024/01/29 12:43:02;;;;;;;8.35;3.40;;;;;;;;;;4997249;28;20034;-75
2024/01/29 12:45:28;;;;;;;7.15;3.22;;;;;;;;;;5015043;28;20026;-74
2024/01/29 12:48:11;;;;;;;5.38;2.95;;;;;;;;;;5015163;28;20056;-75
2024/01/29 12:50:40;;;;;;;7.32;3.30;;;;;;;;;;5015410;28;20485;-75
2024/01/29 12:53:08;;;;;;;6.00;3.03;;;;;;;;;;5014761;28;20485;-74
2024/01/29 12:55:34;;;;;;;5.45;2.67;;;;;;;;;;5014729;28;20098;-74
2024/01/29 12:57:59;;;;;;;6.27;3.17;;;;;;;;;;5014488;28;20452;-74
2024/01/29 13:00:24;;;;;;;7.57;3.28;;;;;;;;;;5014527;28;20363;-74
2024/01/29 13:02:51;;;;;;;4.18;2.65;;;;;;;;;;4996917;28;20018;-73
2024/01/29 13:05:16;;;;;;;7.85;3.22;;;;;;;;;;4996887;28;20113;-75
2024/01/29 13:07:41;;;;;;;6.60;2.72;;;;;;;;;;5014434;28;20061;-74
2024/01/29 13:10:07;;;;;;;10.60;3.47;;;;;;;;;;5014415;28;20488;-75
2024/01/29 13:12:32;;;;;;;6.95;3.33;;;;;;;;;;5014202;28;20773;-74
2024/01/29 13:14:57;;;;;;;7.95;2.90;;;;;;;;;;5014084;28;20389;-74
2024/01/29 13:17:28;;;;;;;3.53;1.80;;;;;;;;;;4996759;28;20113;-74
2024/01/29 13:19:53;;;;;;;7.47;2.47;;;;;;;;;;4997608;28;20385;-74
2024/01/29 13:22:18;;;;;;;7.83;3.40;;;;;;;;;;4996538;28;20053;-74
2024/01/29 13:24:43;;;;;;;7.65;3.28;;;;;;;;;;5014072;28;20256;-74
2024/01/29 13:27:09;;;;;;;6.70;3.20;;;;;;;;;;5014060;28;20029;-74
2024/01/29 13:29:34;;;;;;;6.63;3.10;;;;;;;;;;5014550;28;20279;-74
2024/01/29 13:31:59;;;;;;;8.47;3.03;;;;;;;;;;5013948;28;20262;-74
2024/01/29 13:34:24;;;;;;;7.83;3.60;;;;;;;;;;5014460;28;20259;-74
2024/01/29 13:36:50;;;;;;;6.07;3.17;;;;;;;;;;5013886;28;20266;-74
2024/01/29 13:39:17;;;;;;;7.97;3.80;;;;;;;;;;5014389;28;20022;-73
2024/01/29 13:41:43;;;;;;;11.40;3.13;;;;;;;;;;5013993;28;20034;-74
2024/01/29 13:44:08;;;;;;;6.65;3.13;;;;;;;;;;5013742;28;20034;-73
2024/01/29 13:46:33;;;;;;;5.67;3.40;;;;;;;;;;5014351;28;20022;-73
2024/01/29 13:48:59;;;;;;;6.20;2.90;;;;;;;;;;5014089;28;20282;-74
2024/01/29 13:51:24;;;;;;;4.10;2.20;;;;;;;;;;5013681;28;20263;-73
2024/01/29 13:53:49;;;;;;;8.88;3.05;;;;;;;;;;4996154;28;20111;-73
2024/01/29 13:56:15;;;;;;;7.65;3.47;;;;;;;;;;5013695;28;20021;-73
2024/01/29 13:58:42;;;;;;;5.03;2.63;;;;;;;;;;5013709;28;20021;-73
2024/01/29 14:01:07;;;;;;;7.03;3.65;;;;;;;;;;5013450;28;20026;-75
2024/01/29 14:03:32;;;;;;;12.10;3.90;;;;;;;;;;5013817;28;20029;-75
2024/01/29 14:05:58;;;;;;;10.35;3.78;;;;;;;;;;5013375;28;20252;-74
2024/01/29 14:08:24;;;;;;;8.95;3.78;;;;;;;;;;5013623;28;20439;-75
2024/01/29 14:10:50;;;;;;;6.97;3.42;;;;;;;;;;4995798;28;20033;-74
2024/01/29 14:13:17;;;;;;;7.40;3.28;;;;;;;;;;5013561;28;20033;-75
2024/01/29 14:15:42;;;;;;;7.53;3.47;;;;;;;;;;5013256;28;20033;-74
2024/01/29 14:18:07;;;;;;;8.60;3.72;;;;;;;;;;4995628;28;20014;-75
2024/01/29 14:20:33;;;;;;;6.95;3.58;;;;;;;;;;5013111;28;20021;-75
2024/01/29 14:22:58;;;;;;;7.25;3.58;;;;;;;;;;5015265;28;20033;-75
2024/01/29 14:25:24;;;;;;;10.30;3.75;;;;;;;;;;5012521;28;20482;-75
2024/01/29 14:27:50;;;;;;;7.53;3.50;;;;;;;;;;5013101;28;20072;-72
2024/01/29 14:30:16;;;;;;;12.90;3.90;;;;;;;;;;5013105;28;20029;-75
2024/01/29 14:32:41;;;;;;;6.68;3.30;;;;;;;;;;4995507;28;20033;-75